GUCY/CKY METAR and TAF weather

Enter ICAO airport designator
Station Type Date Time Source
GUCY METAR 2018/01/19 23:00 UTC NOAA

GUCY 192300Z 00000KT 3000 BR NSC 26/19 Q1012 NOSIG


Station Type Date Time Source
GUCY Decoded METAR 2018/01/19 23:00 UTC NOAA

Conakry / Gbessia, Guinea (GUCY) 09-34N 013-37W 26M
Jan 19, 2018 - 06:00 PM EST / 2018.01.19 2300 UTC
Wind: Calm:0
Visibility: 1 mile(s):0
Weather: mist
Temperature: 78 F (26 C)
Dew Point: 66 F (19 C)
Relative Humidity: 65%
Pressure (altimeter): 29.88 in. Hg (1012 hPa)
ob: GUCY 192300Z 00000KT 3000 BR NSC 26/19 Q1012 NOSIG
cycle: 23

Station Type Date Time Source
GUCY TAF 2018/01/19 06:21 UTC NOAA

TAF TAF GUCY 190600Z 1906/2012 28006KT 5000 HZ NSC
TEMPO 1907/1912 04004KT 4000 BR FEW015


Example: see airport list